Time;durP1;ratioP1;P1;durP2;ratioP2;P2;SDS_P1;SDS_P2;PMS_P1;PMS_P2;Temp;Humidity;BMP_temperature;BMP_pressure;BME280_temperature;BME280_humidity;BME280_pressure;Samples;Min_cycle;Max_cycle;Signal;HPM_P1;HPM_P2
2021/04/27 00:00:30;;;;;;;26.88;14.15;;;6.90;51.10;;;;;;5011898;28;20050;-64
2021/04/27 00:02:56;;;;;;;14.32;7.50;;;6.90;51.00;;;;;;5026181;28;20061;-64
2021/04/27 00:05:22;;;;;;;5.72;3.83;;;6.90;51.00;;;;;;5012352;28;20091;-64
2021/04/27 00:07:48;;;;;;;5.97;3.67;;;7.00;50.90;;;;;;5022197;28;20039;-64
2021/04/27 00:10:16;;;;;;;8.55;4.20;;;6.90;50.80;;;;;;5014822;28;20034;-64
2021/04/27 00:12:42;;;;;;;7.05;3.88;;;6.90;51.00;;;;;;5016970;28;20094;-63
2021/04/27 00:15:11;;;;;;;6.57;3.72;;;6.80;51.30;;;;;;5018866;28;20045;-64
2021/04/27 00:17:37;;;;;;;6.40;3.50;;;6.70;51.50;;;;;;5025732;28;20116;-63
2021/04/27 00:20:05;;;;;;;5.68;3.65;;;6.60;51.60;;;;;;5018451;28;20037;-64
2021/04/27 00:22:31;;;;;;;5.95;3.55;;;6.60;51.70;;;;;;5011355;28;20053;-64
2021/04/27 00:24:56;;;;;;;8.13;3.20;;;6.50;51.80;;;;;;5035776;28;20067;-64
2021/04/27 00:27:22;;;;;;;6.15;3.30;;;6.40;52.00;;;;;;5021709;28;20076;-64
2021/04/27 00:29:48;;;;;;;8.07;3.53;;;6.30;51.90;;;;;;5022426;28;20041;-64
2021/04/27 00:32:13;;;;;;;5.57;3.67;;;6.30;52.00;;;;;;5011551;28;20065;-64
2021/04/27 00:34:39;;;;;;;6.10;3.50;;;6.30;52.20;;;;;;5030297;28;20069;-65
2021/04/27 00:37:05;;;;;;;6.32;3.55;;;6.20;52.30;;;;;;5024916;28;20116;-64
2021/04/27 00:39:30;;;;;;;6.18;3.67;;;6.20;52.30;;;;;;5023520;28;20033;-63
2021/04/27 00:41:56;;;;;;;7.70;3.70;;;6.20;52.50;;;;;;5011409;28;20053;-64
2021/04/27 00:44:21;;;;;;;7.68;3.67;;;6.10;52.70;;;;;;5030733;28;20048;-64
2021/04/27 00:46:47;;;;;;;7.60;3.80;;;6.10;52.90;;;;;;5010838;28;20464;-63
2021/04/27 00:49:12;;;;;;;5.50;3.53;;;6.00;53.20;;;;;;5035169;28;20439;-63
2021/04/27 00:51:38;;;;;;;7.15;3.85;;;6.00;53.20;;;;;;5012122;28;20041;-64
2021/04/27 00:54:07;;;;;;;5.72;4.43;;;6.00;53.40;;;;;;5029892;28;20036;-63
2021/04/27 00:56:33;;;;;;;10.98;4.93;;;5.90;53.50;;;;;;5012177;28;20109;-64
2021/04/27 00:58:58;;;;;;;6.22;4.10;;;5.90;53.60;;;;;;5027436;28;20029;-63
2021/04/27 01:01:25;;;;;;;8.15;4.25;;;5.80;53.90;;;;;;5015797;28;20038;-64
2021/04/27 01:03:50;;;;;;;10.15;4.40;;;5.80;53.90;;;;;;5021479;28;20117;-64
2021/04/27 01:06:17;;;;;;;7.40;4.10;;;5.70;54.20;;;;;;5028807;28;20112;-64
2021/04/27 01:08:55;;;;;;;11.13;4.60;;;5.70;54.10;;;;;;5021021;28;20053;-63
2021/04/27 01:11:29;;;;;;;9.27;3.60;;;5.70;54.20;;;;;;5022308;28;20097;-64
2021/04/27 01:13:58;;;;;;;6.85;4.10;;;5.80;54.20;;;;;;5011531;28;20486;-65
2021/04/27 01:16:25;;;;;;;6.40;3.50;;;5.70;54.20;;;;;;5025921;28;20025;-63
2021/04/27 01:18:53;;;;;;;8.40;4.20;;;5.70;54.00;;;;;;5040187;28;20076;-64
2021/04/27 01:21:22;;;;;;;6.95;3.55;;;5.70;54.30;;;;;;5021871;28;20033;-64
2021/04/27 01:24:18;;;;;;;6.03;3.88;;;5.60;54.50;;;;;;5021266;28;20030;-63
2021/04/27 01:26:47;;;;;;;4.93;3.58;;;5.60;54.40;;;;;;5020781;28;20049;-62
2021/04/27 01:29:15;;;;;;;7.35;4.15;;;5.50;54.60;;;;;;5030193;28;20571;-63
2021/04/27 01:31:41;;;;;;;6.47;4.25;;;5.50;54.80;;;;;;5023407;28;20437;-65
2021/04/27 01:34:08;;;;;;;6.80;4.05;;;5.40;55.40;;;;;;5017138;28;20040;-64
2021/04/27 01:36:35;;;;;;;9.27;3.88;;;5.30;55.40;;;;;;5020751;28;20035;-63
2021/04/27 01:39:01;;;;;;;7.80;3.88;;;5.30;55.60;;;;;;5019219;28;20037;-64
2021/04/27 01:41:26;;;;;;;8.20;4.03;;;5.30;55.70;;;;;;5011597;28;20030;-63
2021/04/27 01:43:53;;;;;;;5.00;3.65;;;5.20;55.80;;;;;;5021565;28;20141;-63
2021/04/27 01:46:20;;;;;;;7.32;4.28;;;5.30;55.70;;;;;;5016968;28;20091;-64
2021/04/27 01:48:46;;;;;;;7.70;4.13;;;5.30;55.70;;;;;;5019630;28;20033;-63
2021/04/27 01:51:12;;;;;;;7.03;4.05;;;5.30;55.60;;;;;;5010428;28;20053;-64
2021/04/27 01:53:43;;;;;;;7.18;4.18;;;5.10;56.10;;;;;;5018286;28;20417;-63
2021/04/27 01:56:08;;;;;;;9.27;3.88;;;5.10;56.40;;;;;;5011362;28;20038;-63
2021/04/27 01:58:34;;;;;;;9.13;4.30;;;5.10;56.40;;;;;;5019676;28;20071;-64
2021/04/27 02:01:01;;;;;;;7.43;4.30;;;5.10;56.40;;;;;;5014154;28;20112;-64
2021/04/27 02:03:27;;;;;;;5.10;3.92;;;5.20;56.20;;;;;;5034142;28;20037;-64
2021/04/27 02:05:53;;;;;;;7.43;3.80;;;5.20;56.20;;;;;;5021428;28;20539;-63
2021/04/27 02:08:19;;;;;;;5.85;3.67;;;5.20;56.20;;;;;;5030501;28;20045;-62
2021/04/27 02:10:44;;;;;;;9.18;3.97;;;5.10;56.20;;;;;;5027191;28;20081;-64
2021/04/27 02:13:13;;;;;;;9.45;4.70;;;5.10;56.50;;;;;;5028855;28;20127;-64
2021/04/27 02:15:40;;;;;;;5.63;3.80;;;4.90;56.70;;;;;;5024205;28;20535;-64
2021/04/27 02:18:32;;;;;;;9.32;3.85;;;4.80;57.10;;;;;;5025544;28;20033;-64
2021/04/27 02:21:00;;;;;;;7.10;4.47;;;4.70;57.40;;;;;;5014955;28;20029;-64
2021/04/27 02:23:28;;;;;;;5.72;3.72;;;4.70;57.40;;;;;;5035100;28;20461;-64
2021/04/27 02:25:55;;;;;;;7.72;4.15;;;4.80;57.30;;;;;;5025491;28;20471;-64
2021/04/27 02:28:21;;;;;;;9.65;4.20;;;4.80;57.40;;;;;;5032415;28;20053;-63
2021/04/27 02:30:48;;;;;;;12.18;4.65;;;4.80;57.10;;;;;;5017009;28;20054;-64
2021/04/27 02:33:15;;;;;;;8.15;4.10;;;4.80;57.20;;;;;;5013760;28;20082;-64
2021/04/27 02:35:42;;;;;;;10.65;4.30;;;4.70;57.60;;;;;;5022540;28;20113;-64
2021/04/27 02:38:07;;;;;;;5.97;3.88;;;4.80;57.40;;;;;;5026793;28;20143;-64
2021/04/27 02:40:33;;;;;;;7.07;4.22;;;4.80;57.40;;;;;;5026981;28;20045;-64
2021/04/27 02:43:00;;;;;;;5.50;4.07;;;4.80;57.50;;;;;;5020724;28;20037;-64
2021/04/27 02:45:32;;;;;;;7.25;3.85;;;4.70;57.60;;;;;;5022802;28;20030;-63
2021/04/27 02:48:09;;;;;;;7.38;4.15;;;4.60;58.00;;;;;;5021511;28;20091;-63
2021/04/27 02:50:37;;;;;;;6.90;4.10;;;4.60;58.20;;;;;;5029180;28;20038;-64
2021/04/27 02:53:03;;;;;;;7.40;4.25;;;4.70;58.00;;;;;;5035077;28;20090;-64
2021/04/27 02:55:28;;;;;;;9.70;5.00;;;4.50;58.20;;;;;;5032402;28;20038;-64
2021/04/27 02:57:54;;;;;;;7.63;4.60;;;4.50;58.40;;;;;;5032218;28;20032;-63
2021/04/27 03:00:20;;;;;;;9.38;4.50;;;4.40;58.70;;;;;;5035499;28;20385;-65
2021/04/27 03:02:45;;;;;;;7.93;4.05;;;4.40;58.60;;;;;;5015083;28;20034;-64
2021/04/27 03:05:11;;;;;;;6.65;4.40;;;4.40;58.80;;;;;;5026634;28;20069;-63
2021/04/27 03:07:37;;;;;;;8.05;4.20;;;4.40;58.80;;;;;;5014160;28;20482;-64
2021/04/27 03:10:03;;;;;;;5.93;3.70;;;4.40;59.00;;;;;;5040286;28;20034;-62
2021/04/27 03:12:29;;;;;;;6.55;4.00;;;4.30;59.00;;;;;;5024097;28;20056;-64
2021/04/27 03:14:55;;;;;;;8.05;4.93;;;4.30;59.40;;;;;;5017808;28;20116;-64
2021/04/27 03:17:20;;;;;;;6.43;4.05;;;4.30;59.60;;;;;;5025027;28;20037;-63
2021/04/27 03:19:46;;;;;;;6.70;4.68;;;4.40;59.50;;;;;;5031531;28;20551;-63
2021/04/27 03:22:12;;;;;;;6.88;4.15;;;4.30;59.60;;;;;;5015861;28;20037;-64
2021/04/27 03:24:37;;;;;;;6.40;4.53;;;4.20;60.10;;;;;;5026824;28;20036;-65
2021/04/27 03:27:03;;;;;;;7.35;4.40;;;4.10;60.40;;;;;;5026541;28;20049;-62
2021/04/27 03:29:29;;;;;;;8.23;5.22;;;3.90;60.60;;;;;;5023101;28;20046;-65
2021/04/27 03:31:54;;;;;;;7.60;5.13;;;4.00;60.70;;;;;;5014026;28;20045;-65
2021/04/27 03:34:20;;;;;;;7.53;4.55;;;3.90;61.00;;;;;;5020621;28;20611;-64
2021/04/27 03:36:45;;;;;;;6.13;4.68;;;3.90;61.20;;;;;;5013690;28;20478;-65
2021/04/27 03:39:11;;;;;;;11.23;4.75;;;3.90;61.00;;;;;;5033201;28;20046;-65
2021/04/27 03:41:37;;;;;;;6.57;4.45;;;3.90;61.10;;;;;;5023377;28;20059;-63
2021/04/27 03:44:03;;;;;;;7.85;4.88;;;4.00;61.10;;;;;;5030099;28;20495;-64
2021/04/27 03:46:28;;;;;;;8.57;4.82;;;3.90;61.40;;;;;;5013450;28;20037;-64
2021/04/27 03:48:54;;;;;;;6.45;4.50;;;3.80;61.60;;;;;;5022949;28;20127;-64
2021/04/27 03:51:19;;;;;;;11.57;4.88;;;3.90;61.50;;;;;;5015768;28;20121;-64
2021/04/27 03:53:46;;;;;;;9.95;4.70;;;3.80;61.50;;;;;;5019545;28;20048;-62
2021/04/27 03:56:12;;;;;;;6.10;3.58;;;3.80;61.80;;;;;;5032342;28;20049;-65
2021/04/27 03:58:39;;;;;;;9.45;4.63;;;3.80;61.70;;;;;;5020355;28;20041;-63
2021/04/27 04:01:05;;;;;;;7.05;4.55;;;3.70;62.00;;;;;;5018053;28;20029;-64
2021/04/27 04:03:31;;;;;;;6.20;4.43;;;3.70;62.10;;;;;;5035724;28;20557;-63
2021/04/27 04:05:56;;;;;;;6.97;4.53;;;3.70;62.10;;;;;;5043960;28;20071;-65
2021/04/27 04:08:22;;;;;;;9.68;4.88;;;3.70;62.10;;;;;;5014519;28;20045;-64
2021/04/27 04:10:48;;;;;;;6.82;4.75;;;3.70;62.40;;;;;;5041424;28;20044;-64
2021/04/27 04:13:13;;;;;;;7.15;4.82;;;3.70;62.40;;;;;;5018470;28;20030;-63
2021/04/27 04:15:39;;;;;;;8.23;4.60;;;3.60;62.60;;;;;;5035977;28;20052;-64
2021/04/27 04:18:05;;;;;;;8.88;4.40;;;3.50;63.00;;;;;;5017176;28;20026;-63
2021/04/27 04:20:30;;;;;;;6.47;4.60;;;3.50;63.10;;;;;;5037523;28;20042;-64
2021/04/27 04:22:56;;;;;;;9.70;4.75;;;3.60;63.10;;;;;;5020198;28;20025;-64
2021/04/27 04:25:22;;;;;;;7.35;4.70;;;3.50;63.50;;;;;;5031316;28;20036;-64
2021/04/27 04:27:48;;;;;;;7.63;4.50;;;3.50;63.70;;;;;;5018758;28;20037;-63
2021/04/27 04:30:16;;;;;;;6.60;4.35;;;3.50;63.60;;;;;;5024677;28;20049;-64
2021/04/27 04:32:42;;;;;;;8.13;4.93;;;3.50;63.40;;;;;;5012906;28;20712;-65
2021/04/27 04:35:10;;;;;;;7.25;5.00;;;3.50;64.00;;;;;;5032317;28;20045;-64
2021/04/27 04:37:36;;;;;;;7.50;4.38;;;3.50;63.70;;;;;;5016314;28;20486;-65
2021/04/27 04:40:02;;;;;;;9.05;4.80;;;3.50;63.90;;;;;;5029615;28;20159;-64
2021/04/27 04:42:28;;;;;;;7.63;4.97;;;3.50;63.90;;;;;;5020493;28;20049;-64
2021/04/27 04:44:53;;;;;;;12.52;5.07;;;3.50;63.80;;;;;;5026232;28;20025;-64
2021/04/27 04:47:19;;;;;;;7.22;5.03;;;3.60;63.80;;;;;;5006999;28;20497;-64
2021/04/27 04:49:44;;;;;;;8.25;5.00;;;3.70;63.80;;;;;;5021041;28;20033;-64
2021/04/27 04:52:10;;;;;;;7.15;4.68;;;3.70;63.30;;;;;;5028664;28;20061;-65
2021/04/27 04:54:36;;;;;;;7.78;5.13;;;3.80;63.30;;;;;;5018530;28;20481;-64
2021/04/27 04:57:02;;;;;;;9.63;5.15;;;3.80;63.30;;;;;;5032358;28;20117;-64
2021/04/27 04:59:27;;;;;;;7.47;4.47;;;4.00;63.00;;;;;;5012528;28;20042;-65
2021/04/27 05:01:53;;;;;;;5.25;4.60;;;4.00;62.80;;;;;;5051887;28;20033;-64
2021/04/27 05:04:18;;;;;;;7.45;4.57;;;4.00;63.00;;;;;;5023363;28;20032;-64
2021/04/27 05:06:44;;;;;;;6.78;4.28;;;4.00;62.80;;;;;;5030227;28;20040;-64
2021/04/27 05:09:14;;;;;;;6.47;4.97;;;4.10;62.90;;;;;;5023039;28;20022;-65
2021/04/27 05:11:41;;;;;;;7.15;5.28;;;4.20;62.70;;;;;;5014294;28;20437;-64
2021/04/27 05:14:07;;;;;;;7.57;5.32;;;4.20;62.60;;;;;;5011743;28;20081;-62
2021/04/27 05:16:33;;;;;;;10.00;5.20;;;4.30;62.30;;;;;;5029866;28;20025;-65
2021/04/27 05:18:59;;;;;;;10.60;5.20;;;4.30;62.30;;;;;;5027194;28;20063;-65
2021/04/27 05:21:25;;;;;;;9.00;4.95;;;4.40;62.50;;;;;;5034981;28;20087;-64
2021/04/27 05:23:51;;;;;;;9.00;5.38;;;4.50;62.00;;;;;;5014805;28;20041;-64
2021/04/27 05:26:17;;;;;;;12.07;5.32;;;4.60;62.00;;;;;;5026609;28;20045;-63
2021/04/27 05:28:42;;;;;;;10.20;5.07;;;4.60;61.80;;;;;;5015332;28;20030;-65
2021/04/27 05:31:08;;;;;;;7.30;5.25;;;4.60;61.90;;;;;;5022556;28;20107;-64
2021/04/27 05:33:34;;;;;;;8.40;5.68;;;4.70;61.90;;;;;;5011236;28;20099;-64
2021/04/27 05:36:00;;;;;;;9.05;5.32;;;4.80;61.70;;;;;;5023248;28;20034;-65
2021/04/27 05:38:26;;;;;;;8.50;5.35;;;4.80;61.50;;;;;;5009754;28;20042;-65
2021/04/27 05:40:52;;;;;;;9.68;6.07;;;4.90;61.30;;;;;;5026164;28;20037;-64
2021/04/27 05:43:17;;;;;;;9.05;5.25;;;5.00;61.30;;;;;;5022753;28;20041;-65
2021/04/27 05:45:44;;;;;;;9.23;5.72;;;5.00;61.50;;;;;;5024574;28;20033;-63
2021/04/27 05:48:10;;;;;;;8.32;6.18;;;5.10;61.30;;;;;;5011249;28;20504;-64
2021/04/27 05:50:37;;;;;;;13.50;5.30;;;5.20;61.00;;;;;;5018456;28;20036;-65
2021/04/27 05:53:03;;;;;;;7.78;5.28;;;5.30;60.80;;;;;;5012153;28;20026;-64
2021/04/27 05:55:29;;;;;;;8.80;5.50;;;5.30;61.00;;;;;;5020015;28;20381;-64
2021/04/27 05:57:57;;;;;;;8.05;5.60;;;5.30;61.10;;;;;;5016896;28;20104;-64
2021/04/27 06:00:23;;;;;;;9.27;5.68;;;5.40;61.10;;;;;;5021222;28;20060;-64
2021/04/27 06:02:50;;;;;;;12.90;5.70;;;5.50;61.00;;;;;;5020243;28;20482;-63
2021/04/27 06:05:15;;;;;;;9.70;5.20;;;5.60;61.00;;;;;;5025609;28;20034;-64
2021/04/27 06:07:41;;;;;;;9.38;5.57;;;5.80;60.50;;;;;;5015713;28;20038;-64
2021/04/27 06:10:07;;;;;;;7.78;6.00;;;5.90;60.30;;;;;;5010315;28;20076;-64
2021/04/27 06:12:33;;;;;;;8.45;5.32;;;5.90;60.20;;;;;;5028832;28;20041;-64
2021/04/27 06:14:59;;;;;;;14.30;5.63;;;6.00;60.20;;;;;;5029993;28;20087;-63
2021/04/27 06:17:25;;;;;;;14.25;5.80;;;6.10;60.40;;;;;;5029756;28;20034;-64
2021/04/27 06:19:50;;;;;;;10.05;5.15;;;6.30;60.40;;;;;;5028566;28;20404;-65
2021/04/27 06:22:16;;;;;;;7.93;5.00;;;6.50;60.70;;;;;;5040396;28;20536;-64
2021/04/27 06:24:41;;;;;;;8.80;5.28;;;6.60;59.60;;;;;;5018364;28;20049;-65
2021/04/27 06:27:07;;;;;;;8.98;5.63;;;6.70;60.20;;;;;;5023798;28;20123;-65
2021/04/27 06:29:33;;;;;;;8.27;5.55;;;6.90;59.50;;;;;;5021565;28;20398;-64
2021/04/27 06:31:58;;;;;;;11.75;5.97;;;7.00;59.20;;;;;;5013586;28;20457;-64
2021/04/27 06:34:24;;;;;;;12.73;7.97;;;7.10;58.50;;;;;;5010670;28;20409;-65
2021/04/27 06:36:50;;;;;;;11.00;5.55;;;7.20;58.10;;;;;;5014508;28;20038;-65
2021/04/27 06:39:15;;;;;;;10.68;6.03;;;7.20;58.20;;;;;;5026621;28;20061;-64
2021/04/27 06:41:41;;;;;;;10.63;5.68;;;7.20;57.60;;;;;;5034408;28;20129;-64
2021/04/27 06:44:07;;;;;;;11.23;5.20;;;7.10;57.90;;;;;;5020325;28;20022;-65
2021/04/27 06:46:33;;;;;;;7.63;4.65;;;7.30;58.00;;;;;;5043085;28;20044;-65
2021/04/27 06:48:59;;;;;;;7.20;5.93;;;7.40;57.70;;;;;;5034358;28;20120;-64
2021/04/27 06:51:24;;;;;;;11.77;5.20;;;7.50;57.50;;;;;;5041450;28;20064;-63
2021/04/27 06:53:50;;;;;;;12.30;5.90;;;7.60;57.00;;;;;;5020199;28;20044;-64
2021/04/27 06:56:16;;;;;;;11.60;5.50;;;7.60;57.10;;;;;;5028170;28;20586;-64
2021/04/27 06:58:43;;;;;;;7.90;5.28;;;7.70;57.10;;;;;;5017691;28;20042;-65
2021/04/27 07:01:09;;;;;;;12.90;5.80;;;7.80;57.20;;;;;;5023646;28;20037;-65
2021/04/27 07:03:35;;;;;;;8.60;5.65;;;7.80;56.60;;;;;;5033276;28;20057;-65
2021/04/27 07:06:01;;;;;;;10.43;5.15;;;7.80;57.40;;;;;;5033636;28;20422;-64
2021/04/27 07:08:26;;;;;;;8.55;5.28;;;7.90;56.20;;;;;;5033280;28;20041;-64
2021/04/27 07:10:53;;;;;;;10.13;5.60;;;7.80;56.00;;;;;;5035627;28;20037;-64
2021/04/27 07:13:19;;;;;;;8.57;5.03;;;7.90;56.00;;;;;;5032682;28;20029;-66
2021/04/27 07:15:45;;;;;;;10.20;5.25;;;8.00;55.80;;;;;;5034004;28;20112;-64
2021/04/27 07:18:11;;;;;;;8.15;4.78;;;8.10;56.40;;;;;;5032733;28;20112;-65
2021/04/27 07:20:37;;;;;;;8.50;4.93;;;8.20;55.70;;;;;;5032430;28;20125;-64
2021/04/27 07:23:03;;;;;;;9.60;4.60;;;8.40;54.70;;;;;;5031986;28;20104;-64
2021/04/27 07:25:28;;;;;;;7.15;4.15;;;8.50;54.10;;;;;;5033079;28;20040;-65
2021/04/27 07:27:54;;;;;;;8.80;4.50;;;8.40;53.40;;;;;;5034037;28;20025;-64
2021/04/27 07:30:21;;;;;;;9.93;6.40;;;8.40;52.90;;;;;;5025567;28;20048;-64
2021/04/27 07:32:47;;;;;;;8.00;4.60;;;8.30;53.70;;;;;;5032924;28;20405;-65
2021/04/27 07:35:13;;;;;;;7.85;4.20;;;8.40;53.60;;;;;;5033582;28;20033;-65
2021/04/27 07:37:39;;;;;;;9.18;4.93;;;8.40;53.30;;;;;;5030932;28;20052;-65
2021/04/27 07:40:07;;;;;;;8.10;4.63;;;8.40;52.30;;;;;;5039809;28;20075;-65
2021/04/27 07:42:34;;;;;;;6.45;4.45;;;8.40;51.40;;;;;;5034644;28;20039;-65
2021/04/27 07:44:59;;;;;;;5.93;3.92;;;8.40;52.00;;;;;;5033082;28;20113;-66
2021/04/27 07:47:26;;;;;;;10.30;4.80;;;8.50;52.20;;;;;;5033075;28;20046;-65
2021/04/27 07:49:52;;;;;;;7.35;4.13;;;8.50;52.00;;;;;;5033614;28;20026;-64
2021/04/27 07:52:18;;;;;;;8.15;4.45;;;8.50;51.60;;;;;;5040835;28;20025;-65
2021/04/27 07:54:45;;;;;;;11.23;4.57;;;8.60;51.20;;;;;;5026493;28;20064;-64
2021/04/27 07:57:20;;;;;;;9.18;4.30;;;8.60;49.80;;;;;;5030409;28;20044;-64
2021/04/27 07:59:46;;;;;;;7.38;4.43;;;8.70;49.50;;;;;;5035428;28;20331;-63
2021/04/27 08:02:11;;;;;;;8.38;4.78;;;8.80;48.60;;;;;;5003109;28;20042;-63
2021/04/27 08:04:37;;;;;;;18.27;4.18;;;8.90;48.80;;;;;;5044622;28;20041;-64
2021/04/27 08:07:03;;;;;;;17.27;4.50;;;8.90;49.00;;;;;;5028982;28;20088;-64
2021/04/27 08:09:28;;;;;;;10.10;4.50;;;8.90;47.80;;;;;;5047824;28;20022;-64
2021/04/27 08:11:54;;;;;;;8.57;4.00;;;8.90;47.90;;;;;;5026429;28;20501;-64
2021/04/27 08:14:21;;;;;;;7.80;4.22;;;9.00;47.80;;;;;;5041702;28;20029;-63
2021/04/27 08:16:47;;;;;;;7.00;3.85;;;9.20;47.00;;;;;;5027350;28;20128;-65
2021/04/27 08:19:13;;;;;;;5.93;3.38;;;9.20;46.60;;;;;;5033706;28;20021;-64
2021/04/27 08:21:39;;;;;;;4.75;3.63;;;9.20;45.70;;;;;;5021683;28;20085;-65
2021/04/27 08:24:06;;;;;;;10.18;3.92;;;9.30;45.80;;;;;;5033689;28;20551;-64
2021/04/27 08:26:32;;;;;;;7.53;3.83;;;9.20;44.60;;;;;;5026496;28;20060;-65
2021/04/27 08:28:58;;;;;;;8.27;3.75;;;9.20;45.50;;;;;;5021157;28;20116;-65
2021/04/27 08:31:24;;;;;;;6.78;4.10;;;9.30;45.20;;;;;;5019019;28;20647;-65
2021/04/27 08:33:50;;;;;;;6.57;3.90;;;9.40;45.40;;;;;;5036124;28;20026;-65
2021/04/27 08:36:15;;;;;;;9.07;3.50;;;9.40;45.20;;;;;;5029857;28;20036;-64
2021/04/27 08:38:41;;;;;;;9.60;3.90;;;9.40;43.80;;;;;;5035125;28;20038;-64
2021/04/27 08:41:07;;;;;;;6.43;3.45;;;9.50;44.20;;;;;;5020784;28;20026;-65
2021/04/27 08:43:33;;;;;;;10.25;3.75;;;9.50;44.00;;;;;;5040013;28;20095;-62
2021/04/27 08:45:59;;;;;;;7.40;3.80;;;9.50;44.10;;;;;;5019474;28;20029;-64
2021/04/27 08:48:25;;;;;;;6.15;3.72;;;9.40;44.10;;;;;;5039147;28;20042;-64
2021/04/27 08:50:51;;;;;;;6.78;4.10;;;9.40;44.40;;;;;;5013879;28;20034;-64
2021/04/27 08:53:17;;;;;;;7.03;3.95;;;9.60;43.90;;;;;;5016411;28;20037;-63
2021/04/27 08:55:43;;;;;;;6.97;3.55;;;9.80;43.60;;;;;;5015558;28;20498;-63
2021/04/27 08:58:11;;;;;;;6.93;4.18;;;10.00;43.40;;;;;;5029815;28;20045;-63
2021/04/27 09:00:37;;;;;;;6.88;4.32;;;10.10;43.40;;;;;;5017159;28;20025;-64
2021/04/27 09:03:08;;;;;;;7.22;4.00;;;10.00;43.50;;;;;;5035541;28;20100;-64
2021/04/27 09:05:36;;;;;;;7.55;3.60;;;10.20;43.20;;;;;;5038437;28;20041;-64
2021/04/27 09:08:03;;;;;;;5.05;3.38;;;10.20;42.50;;;;;;5032231;28;20084;-64
2021/04/27 09:10:38;;;;;;;9.85;3.65;;;10.30;42.50;;;;;;5034902;28;20036;-63
2021/04/27 09:13:17;;;;;;;5.90;3.92;;;10.40;41.70;;;;;;5027867;28;20053;-63
2021/04/27 09:15:47;;;;;;;7.28;3.53;;;10.50;41.50;;;;;;5033993;28;20137;-63
2021/04/27 09:18:35;;;;;;;8.98;4.00;;;10.50;40.50;;;;;;5030621;28;20032;-64
2021/04/27 09:21:08;;;;;;;10.77;3.92;;;10.50;40.80;;;;;;5027800;28;20134;-63
2021/04/27 09:23:40;;;;;;;11.23;3.35;;;10.50;40.40;;;;;;5022427;28;20033;-64
2021/04/27 09:26:17;;;;;;;10.20;3.67;;;10.70;39.80;;;;;;5026950;28;20037;-65
2021/04/27 09:28:45;;;;;;;8.02;3.63;;;10.70;38.70;;;;;;5020577;28;20025;-64
2021/04/27 09:31:37;;;;;;;7.55;3.47;;;10.90;39.30;;;;;;5038401;28;20499;-64
2021/04/27 09:34:22;;;;;;;9.10;4.03;;;10.90;39.80;;;;;;5019099;28;20041;-64
2021/04/27 09:37:00;;;;;;;6.75;3.22;;;11.00;39.30;;;;;;5019129;28;20033;-65
2021/04/27 09:39:51;;;;;;;4.55;3.10;;;11.20;38.40;;;;;;5022305;28;20041;-64
2021/04/27 09:42:24;;;;;;;6.15;3.45;;;11.20;37.70;;;;;;5027832;28;20048;-66
2021/04/27 09:44:52;;;;;;;6.45;3.83;;;11.20;37.90;;;;;;5019145;28;20038;-65
2021/04/27 09:47:29;;;;;;;7.28;3.50;;;11.30;36.60;;;;;;5026217;28;20061;-67
2021/04/27 09:50:02;;;;;;;9.73;3.40;;;11.20;36.20;;;;;;5021774;28;20036;-65
2021/04/27 09:52:30;;;;;;;8.48;3.72;;;11.30;36.00;;;;;;5027569;28;20037;-65
2021/04/27 09:55:04;;;;;;;5.90;3.58;;;11.30;36.60;;;;;;5018452;28;20069;-65
2021/04/27 09:57:52;;;;;;;7.72;4.70;;;11.40;37.10;;;;;;5015461;28;20053;-65
2021/04/27 10:00:21;;;;;;;6.97;3.40;;;11.50;37.00;;;;;;5023428;28;20686;-65
2021/04/27 10:02:47;;;;;;;9.05;3.60;;;11.40;36.70;;;;;;5028458;28;20041;-67
2021/04/27 10:05:13;;;;;;;8.02;3.50;;;11.20;36.50;;;;;;5011873;28;20059;-66
2021/04/27 10:07:40;;;;;;;8.18;3.70;;;11.00;36.40;;;;;;5028855;28;20370;-65
2021/04/27 10:10:08;;;;;;;7.40;3.53;;;10.90;36.90;;;;;;5030376;28;20398;-66
2021/04/27 10:12:35;;;;;;;6.18;3.10;;;11.10;36.90;;;;;;5031882;28;20547;-65
2021/04/27 10:15:01;;;;;;;4.38;3.25;;;11.10;37.10;;;;;;5035771;28;20096;-66
2021/04/27 10:17:27;;;;;;;8.88;4.07;;;11.30;37.00;;;;;;5024963;28;20042;-65
2021/04/27 10:19:53;;;;;;;8.13;3.70;;;11.40;36.30;;;;;;5042586;28;20424;-67
2021/04/27 10:22:19;;;;;;;5.63;3.85;;;11.30;37.10;;;;;;5050998;28;20034;-67
2021/04/27 10:24:48;;;;;;;9.00;3.80;;;11.10;36.70;;;;;;5030477;28;20532;-65
2021/04/27 10:27:14;;;;;;;6.28;3.25;;;11.30;37.10;;;;;;5044473;28;20053;-68
2021/04/27 10:29:40;;;;;;;5.60;3.17;;;11.40;36.80;;;;;;5028131;28;20034;-67
2021/04/27 10:32:28;;;;;;;8.18;3.78;;;11.30;35.90;;;;;;5033711;28;20080;-68
2021/04/27 10:34:56;;;;;;;3.90;3.15;;;11.20;36.60;;;;;;5033508;28;20041;-65
2021/04/27 10:37:27;;;;;;;8.55;3.85;;;11.20;36.90;;;;;;5022486;28;20033;-66
2021/04/27 10:39:52;;;;;;;12.35;3.83;;;11.40;37.70;;;;;;5041304;28;20029;-67
2021/04/27 10:42:19;;;;;;;5.18;3.72;;;11.50;36.40;;;;;;5038328;28;20547;-64
2021/04/27 10:44:59;;;;;;;8.80;3.55;;;11.60;36.50;;;;;;5034530;28;20041;-64
2021/04/27 10:47:25;;;;;;;7.53;4.20;;;11.80;36.50;;;;;;5038733;28;20075;-64
2021/04/27 10:49:58;;;;;;;6.65;3.50;;;12.00;36.50;;;;;;5030232;28;20038;-62
2021/04/27 10:52:32;;;;;;;5.13;3.70;;;12.10;36.10;;;;;;5024925;28;20038;-63
2021/04/27 10:55:31;;;;;;;6.60;4.40;;;12.00;35.90;;;;;;5037249;28;20045;-65
2021/04/27 10:58:02;;;;;;;5.68;4.43;;;12.10;36.40;;;;;;5021570;28;20124;-63
2021/04/27 11:00:39;;;;;;;8.73;3.97;;;12.20;36.90;;;;;;5032731;28;20646;-64
2021/04/27 11:03:16;;;;;;;6.88;4.13;;;12.30;36.70;;;;;;5032273;28;20041;-64
2021/04/27 11:05:49;;;;;;;7.88;4.45;;;12.30;36.80;;;;;;5033891;28;20025;-64
2021/04/27 11:08:15;;;;;;;5.93;4.60;;;12.30;36.50;;;;;;5031955;28;20117;-65
2021/04/27 11:10:45;;;;;;;5.47;4.05;;;12.50;36.30;;;;;;5033159;28;20187;-64
2021/04/27 11:13:13;;;;;;;11.23;4.13;;;12.30;37.00;;;;;;5031986;28;20159;-64
2021/04/27 11:15:41;;;;;;;7.32;4.10;;;12.20;36.90;;;;;;5037038;28;20449;-65
2021/04/27 11:18:16;;;;;;;6.10;3.92;;;12.20;37.10;;;;;;5038946;28;20066;-64
2021/04/27 11:20:41;;;;;;;;;;;12.30;37.00;;;;;;5035390;28;20160;-63
2021/04/27 11:23:07;;;;;;;8.52;4.18;;;12.30;37.10;;;;;;5037759;28;20051;-64
2021/04/27 11:25:34;;;;;;;6.63;4.45;;;12.20;37.30;;;;;;5026122;28;20041;-64
2021/04/27 11:28:00;;;;;;;7.05;4.47;;;12.20;37.00;;;;;;5028505;28;20065;-65
2021/04/27 11:30:34;;;;;;;10.85;4.95;;;12.20;37.70;;;;;;5021441;28;20045;-64
2021/04/27 11:33:05;;;;;;;6.03;4.20;;;12.30;38.10;;;;;;5039556;28;20037;-63
2021/04/27 11:35:42;;;;;;;5.60;4.05;;;12.50;37.60;;;;;;5031238;28;20056;-65
2021/04/27 11:38:08;;;;;;;9.63;4.78;;;12.50;37.20;;;;;;5028640;28;20041;-63
2021/04/27 11:40:41;;;;;;;6.95;4.10;;;12.60;37.00;;;;;;5031801;28;20026;-64
2021/04/27 11:43:12;;;;;;;5.38;3.85;;;12.60;37.20;;;;;;5029035;28;20034;-65
2021/04/27 11:45:39;;;;;;;7.00;4.00;;;12.70;36.60;;;;;;5031866;28;20029;-64
2021/04/27 11:48:09;;;;;;;6.65;4.05;;;12.90;36.80;;;;;;5031106;28;20033;-65
2021/04/27 11:50:36;;;;;;;9.68;4.22;;;13.10;36.40;;;;;;5034471;28;20037;-64
2021/04/27 11:53:09;;;;;;;7.10;3.97;;;12.90;35.50;;;;;;5033160;28;20030;-64
2021/04/27 11:55:56;;;;;;;5.93;4.22;;;12.60;35.90;;;;;;5018217;28;20391;-63
2021/04/27 11:58:47;;;;;;;6.50;3.85;;;12.60;36.00;;;;;;5012595;28;20033;-63
2021/04/27 12:01:16;;;;;;;8.15;4.18;;;12.80;35.80;;;;;;5032137;28;20050;-63
2021/04/27 12:03:46;;;;;;;5.78;3.65;;;12.70;36.10;;;;;;5034844;28;20037;-63
2021/04/27 12:06:17;;;;;;;6.75;3.90;;;12.90;36.00;;;;;;5034133;28;20030;-65
2021/04/27 12:08:54;;;;;;;9.23;4.43;;;13.10;35.80;;;;;;5030566;28;20433;-67
2021/04/27 12:11:32;;;;;;;10.68;5.05;;;13.30;35.20;;;;;;5030804;28;20040;-63
2021/04/27 12:14:15;;;;;;;5.57;4.03;;;13.40;35.10;;;;;;5019487;28;20480;-65
2021/04/27 12:16:43;;;;;;;5.15;4.20;;;13.50;35.00;;;;;;5025994;28;20033;-64
2021/04/27 12:19:14;;;;;;;5.95;3.78;;;13.60;34.90;;;;;;5030302;28;20041;-64
2021/04/27 12:21:40;;;;;;;8.50;4.10;;;13.60;34.90;;;;;;5025299;28;20111;-64
2021/04/27 12:24:26;;;;;;;10.07;4.32;;;13.30;34.50;;;;;;5021801;28;20497;-65
2021/04/27 12:27:03;;;;;;;7.03;4.07;;;13.20;35.40;;;;;;5026879;28;20068;-66
2021/04/27 12:29:32;;;;;;;12.88;4.70;;;13.20;35.40;;;;;;5036581;28;20078;-65
2021/04/27 12:32:12;;;;;;;5.88;3.92;;;13.40;35.30;;;;;;5021529;28;20108;-64
2021/04/27 12:34:53;;;;;;;8.48;4.07;;;13.50;34.70;;;;;;5029162;28;20120;-65
2021/04/27 12:37:18;;;;;;;9.73;4.35;;;13.60;34.60;;;;;;5023321;28;20042;-64
2021/04/27 12:39:44;;;;;;;11.15;8.73;;;13.80;34.80;;;;;;5019507;28;20036;-62
2021/04/27 12:42:27;;;;;;;7.55;5.18;;;14.20;42.30;;;;;;5012074;28;20026;-63
2021/04/27 12:44:57;;;;;;;6.78;5.05;;;14.60;40.20;;;;;;5018378;28;20029;-63
2021/04/27 12:47:29;;;;;;;8.57;5.38;;;14.60;37.00;;;;;;5040123;28;20103;-62
2021/04/27 12:50:03;;;;;;;18.55;7.63;;;15.00;40.00;;;;;;5025153;28;20508;-63
2021/04/27 12:52:30;;;;;;;5.82;4.20;;;15.40;35.50;;;;;;5012047;28;20037;-63
2021/04/27 12:55:02;;;;;;;8.70;4.40;;;15.40;34.10;;;;;;5027984;28;20131;-64
2021/04/27 12:57:28;;;;;;;10.93;4.45;;;15.40;34.40;;;;;;5011803;28;20168;-61